Time;durP1;ratioP1;P1;durP2;ratioP2;P2;SDS_P1;SDS_P2;PMS_P1;PMS_P2;Temp;Humidity;BMP_temperature;BMP_pressure;BME280_temperature;BME280_humidity;BME280_pressure;Samples;Min_cycle;Max_cycle;Signal;HPM_P1;HPM_P2
2024/03/25 00:01:51;;;;;;;6.40;1.50;;;6.90;99.90;;;;;;5078463;28;20042;-80
2024/03/25 00:04:16;;;;;;;3.75;1.33;;;6.90;99.90;;;;;;5077630;28;20367;-80
2024/03/25 00:06:42;;;;;;;2.13;1.40;;;6.90;99.90;;;;;;5077857;28;20028;-80
2024/03/25 00:09:13;;;;;;;2.57;1.50;;;6.90;99.90;;;;;;5077901;28;20081;-80
2024/03/25 00:11:42;;;;;;;2.95;1.50;;;6.80;99.90;;;;;;5078393;28;20118;-80
2024/03/25 00:14:07;;;;;;;2.30;1.20;;;6.90;99.90;;;;;;5077876;28;20036;-80
2024/03/25 00:16:33;;;;;;;3.40;1.35;;;6.90;99.90;;;;;;5077467;28;20088;-84
2024/03/25 00:18:59;;;;;;;2.00;1.35;;;6.90;99.90;;;;;;5077918;28;20024;-83
2024/03/25 00:21:24;;;;;;;9.00;1.60;;;6.90;99.90;;;;;;5095454;28;20019;-83
2024/03/25 00:23:50;;;;;;;3.33;1.30;;;6.90;99.90;;;;;;5078359;28;20107;-83
2024/03/25 00:26:15;;;;;;;2.30;1.48;;;6.90;99.90;;;;;;5077655;28;20449;-84
2024/03/25 00:28:41;;;;;;;5.28;1.90;;;6.90;99.90;;;;;;5077893;28;20212;-84
2024/03/25 00:31:07;;;;;;;4.07;1.50;;;6.90;99.90;;;;;;5077774;28;20024;-82
2024/03/25 00:33:32;;;;;;;3.20;1.30;;;6.90;99.90;;;;;;5076930;28;20103;-82
2024/03/25 00:35:59;;;;;;;5.05;1.38;;;6.90;99.90;;;;;;5095448;28;20047;-82
2024/03/25 00:38:24;;;;;;;2.78;1.40;;;6.90;99.90;;;;;;5095466;28;20081;-82
2024/03/25 00:40:50;;;;;;;5.30;1.20;;;6.90;99.90;;;;;;5095607;28;20020;-82
2024/03/25 00:43:17;;;;;;;3.58;1.42;;;6.80;99.90;;;;;;5077164;28;20020;-83
2024/03/25 00:45:43;;;;;;;4.75;1.77;;;6.90;99.90;;;;;;5077530;28;20495;-82
2024/03/25 00:48:08;;;;;;;2.88;1.40;;;6.90;99.90;;;;;;5095408;28;20036;-83
2024/03/25 00:50:34;;;;;;;4.28;1.40;;;6.90;99.90;;;;;;5077340;28;20282;-83
2024/03/25 00:52:59;;;;;;;5.68;1.80;;;6.90;99.90;;;;;;5077534;28;20042;-83
2024/03/25 00:55:25;;;;;;;2.35;1.60;;;6.90;99.90;;;;;;5076824;28;20026;-83
2024/03/25 00:57:51;;;;;;;4.28;1.40;;;6.90;99.90;;;;;;5077122;28;20027;-82
2024/03/25 01:00:17;;;;;;;1.88;1.02;;;6.90;99.90;;;;;;5076917;28;20027;-83
2024/03/25 01:02:43;;;;;;;4.18;1.35;;;6.80;99.90;;;;;;5094815;28;20016;-82
2024/03/25 01:05:09;;;;;;;2.17;1.27;;;6.80;99.90;;;;;;5076705;28;20114;-83
2024/03/25 01:07:35;;;;;;;5.28;1.25;;;6.80;99.90;;;;;;5076420;28;20115;-83
2024/03/25 01:10:01;;;;;;;3.67;1.73;;;6.80;99.90;;;;;;5077342;28;20027;-81
2024/03/25 01:12:26;;;;;;;3.55;1.60;;;6.80;99.90;;;;;;5076772;28;20462;-82
2024/03/25 01:14:52;;;;;;;4.60;1.27;;;6.80;99.90;;;;;;5095205;28;20020;-82
2024/03/25 01:17:18;;;;;;;6.82;1.60;;;6.80;99.90;;;;;;5076200;28;20114;-82
2024/03/25 01:19:44;;;;;;;4.72;1.35;;;6.80;99.90;;;;;;5076669;28;20066;-82
2024/03/25 01:22:10;;;;;;;3.00;1.45;;;6.80;99.90;;;;;;5076957;28;20342;-83
2024/03/25 01:24:35;;;;;;;5.45;1.23;;;6.80;99.90;;;;;;5094556;28;20021;-82
2024/03/25 01:27:01;;;;;;;2.73;1.40;;;6.80;99.90;;;;;;5077200;28;20113;-82
2024/03/25 01:29:27;;;;;;;4.57;1.55;;;6.80;99.90;;;;;;5076251;28;20407;-82
2024/03/25 01:31:53;;;;;;;6.38;1.73;;;6.80;99.90;;;;;;5076753;28;20032;-81
2024/03/25 01:34:18;;;;;;;3.67;1.30;;;6.80;99.90;;;;;;5076004;28;20017;-84
2024/03/25 01:36:44;;;;;;;7.40;2.47;;;6.70;99.90;;;;;;5076522;28;20027;-82
2024/03/25 01:39:10;;;;;;;2.22;1.40;;;6.80;99.90;;;;;;5076954;28;20115;-83
2024/03/25 01:41:35;;;;;;;2.75;1.60;;;6.80;99.90;;;;;;5076108;28;20024;-81
2024/03/25 01:44:02;;;;;;;2.70;1.58;;;6.80;99.90;;;;;;5076462;28;20089;-81
2024/03/25 01:46:27;;;;;;;2.95;1.35;;;6.70;99.90;;;;;;5076321;28;20063;-81
2024/03/25 01:48:53;;;;;;;3.17;1.40;;;6.70;99.90;;;;;;5076191;28;20056;-81
2024/03/25 01:51:21;;;;;;;3.17;1.52;;;6.70;99.90;;;;;;5076109;28;20073;-83
2024/03/25 01:53:48;;;;;;;4.70;1.63;;;6.70;99.90;;;;;;5076441;28;20073;-81
2024/03/25 01:56:15;;;;;;;4.25;1.70;;;6.80;99.90;;;;;;5094836;28;20027;-82
2024/03/25 01:58:41;;;;;;;4.68;1.70;;;6.80;99.90;;;;;;5094220;28;20496;-81
2024/03/25 02:01:10;;;;;;;3.28;1.55;;;6.80;99.90;;;;;;5076860;28;20489;-82
2024/03/25 02:03:36;;;;;;;6.28;2.60;;;6.80;99.90;;;;;;5076006;28;20477;-81
2024/03/25 02:06:08;;;;;;;6.22;1.83;;;6.80;99.90;;;;;;5076443;28;20027;-80
2024/03/25 02:08:34;;;;;;;3.30;1.35;;;6.80;99.90;;;;;;5075628;28;20059;-81
2024/03/25 02:11:01;;;;;;;4.85;1.40;;;6.80;99.90;;;;;;5075908;28;20031;-81
2024/03/25 02:13:27;;;;;;;2.05;1.38;;;6.80;99.90;;;;;;5093408;28;20047;-81
2024/03/25 02:15:54;;;;;;;6.10;2.25;;;6.80;99.90;;;;;;5076098;28;20453;-80
2024/03/25 02:18:20;;;;;;;2.22;1.27;;;6.80;99.90;;;;;;5075722;28;20024;-83
2024/03/25 02:20:47;;;;;;;5.65;1.58;;;6.70;99.90;;;;;;5093989;28;20099;-80
2024/03/25 02:23:13;;;;;;;5.07;2.05;;;6.70;99.90;;;;;;5093843;28;20099;-80
2024/03/25 02:25:42;;;;;;;4.78;1.70;;;6.70;99.90;;;;;;5075975;28;20024;-81
2024/03/25 02:28:08;;;;;;;5.27;1.40;;;6.70;99.90;;;;;;5076100;28;20371;-80
2024/03/25 02:30:33;;;;;;;3.40;1.50;;;6.70;99.90;;;;;;5075919;28;20114;-81
2024/03/25 02:32:59;;;;;;;2.30;1.10;;;6.70;99.90;;;;;;5076177;28;20453;-81
2024/03/25 02:35:26;;;;;;;7.55;1.90;;;6.70;99.90;;;;;;5093362;28;20080;-81
2024/03/25 02:37:53;;;;;;;2.90;1.27;;;6.70;99.90;;;;;;5075880;28;20024;-80
2024/03/25 02:40:19;;;;;;;3.88;1.45;;;6.70;99.90;;;;;;5075956;28;20024;-81
2024/03/25 02:42:45;;;;;;;5.57;1.70;;;6.70;99.90;;;;;;5093806;28;20023;-81
2024/03/25 02:45:11;;;;;;;6.63;1.27;;;6.70;99.90;;;;;;5076019;28;20048;-81
2024/03/25 02:47:36;;;;;;;4.40;1.50;;;6.70;99.90;;;;;;5075400;28;20511;-80
2024/03/25 02:50:02;;;;;;;4.82;1.50;;;6.60;99.90;;;;;;5076039;28;20017;-80
2024/03/25 02:52:28;;;;;;;3.85;1.52;;;6.70;99.90;;;;;;5075434;28;20020;-81
2024/03/25 02:54:56;;;;;;;4.55;1.48;;;6.60;99.90;;;;;;5076083;28;20016;-81
2024/03/25 02:57:22;;;;;;;2.27;1.30;;;6.60;99.90;;;;;;5093494;28;20077;-84
2024/03/25 02:59:47;;;;;;;3.85;1.55;;;6.60;99.90;;;;;;5076098;28;20024;-81
2024/03/25 03:02:13;;;;;;;4.03;1.33;;;6.60;99.90;;;;;;5076039;28;20020;-80
2024/03/25 03:04:39;;;;;;;3.13;1.20;;;6.60;99.90;;;;;;5075768;28;20025;-81
2024/03/25 03:07:05;;;;;;;3.38;1.10;;;6.60;99.90;;;;;;5076140;28;20020;-80
2024/03/25 03:09:30;;;;;;;3.77;1.30;;;6.60;99.90;;;;;;5075677;28;20030;-81
2024/03/25 03:11:56;;;;;;;2.85;1.50;;;6.60;99.90;;;;;;5094089;28;20016;-78
2024/03/25 03:14:21;;;;;;;2.37;1.60;;;6.60;99.90;;;;;;5093711;28;20024;-85
2024/03/25 03:16:47;;;;;;;4.60;1.40;;;6.60;99.90;;;;;;5075785;28;20471;-81
2024/03/25 03:19:12;;;;;;;2.63;1.30;;;6.50;99.90;;;;;;5075757;28;20055;-80
2024/03/25 03:21:38;;;;;;;3.15;1.30;;;6.50;99.90;;;;;;5075772;28;20020;-80
2024/03/25 03:24:04;;;;;;;3.22;1.30;;;6.50;99.90;;;;;;5079492;28;20045;-80
2024/03/25 03:26:30;;;;;;;2.30;1.10;;;6.50;99.90;;;;;;5078852;28;20020;-80
2024/03/25 03:28:57;;;;;;;3.40;1.60;;;6.40;99.90;;;;;;5079397;28;20028;-81
2024/03/25 03:31:23;;;;;;;2.67;1.35;;;6.40;99.90;;;;;;5096893;28;20035;-84
2024/03/25 03:33:49;;;;;;;3.75;1.20;;;6.40;99.90;;;;;;5078929;28;20024;-83
2024/03/25 03:36:19;;;;;;;3.28;1.90;;;6.40;99.90;;;;;;5079238;28;20068;-83
2024/03/25 03:38:45;;;;;;;4.00;1.47;;;6.40;99.90;;;;;;5096636;28;20448;-83
2024/03/25 03:41:11;;;;;;;1.90;1.38;;;6.40;99.90;;;;;;5079456;28;20050;-83
2024/03/25 03:43:37;;;;;;;3.93;1.33;;;6.40;99.90;;;;;;5078256;28;20095;-83
2024/03/25 03:46:03;;;;;;;3.60;1.30;;;6.40;99.90;;;;;;5078959;28;20107;-82
2024/03/25 03:48:30;;;;;;;2.55;1.20;;;6.40;99.90;;;;;;5078338;28;20028;-82
2024/03/25 03:50:55;;;;;;;2.00;1.20;;;6.30;99.90;;;;;;5078839;28;20445;-83
2024/03/25 03:53:21;;;;;;;3.53;1.58;;;6.40;99.90;;;;;;5079151;28;20031;-83
2024/03/25 03:55:57;;;;;;;3.85;1.60;;;6.40;99.90;;;;;;5078446;28;20032;-82
2024/03/25 03:58:23;;;;;;;4.70;1.50;;;6.40;99.90;;;;;;5078672;28;20118;-85
2024/03/25 04:00:49;;;;;;;4.40;1.73;;;6.40;99.90;;;;;;5078657;28;20059;-82
2024/03/25 04:03:15;;;;;;;3.20;1.17;;;6.40;99.90;;;;;;5078675;28;20024;-82
2024/03/25 04:05:40;;;;;;;5.93;1.40;;;6.40;99.90;;;;;;5096315;28;20027;-82
2024/03/25 04:08:06;;;;;;;3.63;1.30;;;6.40;99.90;;;;;;5079007;28;20024;-83
2024/03/25 04:10:33;;;;;;;2.53;1.37;;;6.40;99.90;;;;;;5078384;28;20058;-80
2024/03/25 04:12:58;;;;;;;3.80;1.77;;;6.40;99.90;;;;;;5096571;28;20020;-79
2024/03/25 04:15:26;;;;;;;2.50;1.40;;;6.40;99.90;;;;;;5096058;28;20020;-82
2024/03/25 04:17:51;;;;;;;5.17;1.60;;;6.40;99.90;;;;;;5078065;28;20032;-80
2024/03/25 04:20:17;;;;;;;3.53;1.40;;;6.40;99.90;;;;;;5096064;28;20032;-80
2024/03/25 04:22:47;;;;;;;4.00;1.47;;;6.40;99.90;;;;;;5095647;28;20056;-80
2024/03/25 04:25:16;;;;;;;2.77;1.60;;;6.40;99.90;;;;;;5077803;28;20020;-80
2024/03/25 04:27:42;;;;;;;3.33;1.20;;;6.40;99.90;;;;;;5095175;28;20066;-80
2024/03/25 04:30:09;;;;;;;2.97;1.20;;;6.40;99.90;;;;;;5095845;28;20024;-80
2024/03/25 04:32:35;;;;;;;3.33;1.40;;;6.40;99.90;;;;;;5077069;28;20055;-80
2024/03/25 04:35:03;;;;;;;4.50;1.43;;;6.40;99.90;;;;;;5078195;28;20080;-80
2024/03/25 04:37:29;;;;;;;4.60;1.73;;;6.30;99.90;;;;;;5077476;28;20024;-84
2024/03/25 04:39:55;;;;;;;4.80;1.50;;;6.30;99.90;;;;;;5095750;28;20027;-79
2024/03/25 04:42:22;;;;;;;3.67;1.47;;;6.30;99.90;;;;;;5095651;28;20020;-79
2024/03/25 04:44:48;;;;;;;4.77;1.40;;;6.30;99.90;;;;;;5076609;28;20044;-79
2024/03/25 04:47:15;;;;;;;5.40;1.73;;;6.30;99.90;;;;;;5077787;28;20031;-81
2024/03/25 04:49:41;;;;;;;3.37;1.37;;;6.30;99.90;;;;;;5077206;28;20059;-81
2024/03/25 04:52:06;;;;;;;4.33;1.40;;;6.20;99.90;;;;;;5077704;28;20019;-81
2024/03/25 04:54:32;;;;;;;4.10;1.33;;;6.20;99.90;;;;;;5077024;28;20514;-80
2024/03/25 04:56:58;;;;;;;3.97;1.23;;;6.20;99.90;;;;;;5077824;28;20023;-81
2024/03/25 04:59:24;;;;;;;3.23;1.40;;;6.20;99.90;;;;;;5077491;28;20074;-81
2024/03/25 05:01:49;;;;;;;3.50;1.40;;;6.20;99.90;;;;;;5076657;28;20702;-80
2024/03/25 05:04:15;;;;;;;3.77;1.47;;;6.20;99.90;;;;;;5077870;28;20024;-80
2024/03/25 05:06:40;;;;;;;4.17;1.70;;;6.20;99.90;;;;;;5076881;28;20020;-77
2024/03/25 05:09:06;;;;;;;3.40;1.43;;;6.20;99.90;;;;;;5095023;28;20364;-78
2024/03/25 05:11:33;;;;;;;3.63;1.43;;;6.20;99.90;;;;;;5094721;28;20070;-81
2024/03/25 05:13:59;;;;;;;2.53;1.53;;;6.20;99.90;;;;;;5095221;28;20028;-80
2024/03/25 05:16:24;;;;;;;3.50;1.70;;;6.20;99.90;;;;;;5077182;28;20115;-79
2024/03/25 05:18:50;;;;;;;2.60;1.50;;;6.20;99.90;;;;;;5076705;28;20586;-80
2024/03/25 05:21:15;;;;;;;4.53;1.70;;;6.20;99.90;;;;;;5095401;28;20077;-79
2024/03/25 05:23:41;;;;;;;3.67;1.60;;;6.20;99.90;;;;;;5076712;28;20069;-79
2024/03/25 05:26:07;;;;;;;3.40;1.70;;;6.20;99.90;;;;;;5077368;28;20387;-79
2024/03/25 05:28:33;;;;;;;6.53;1.53;;;6.10;99.90;;;;;;5076412;28;20077;-79
2024/03/25 05:31:08;;;;;;;3.13;1.70;;;6.10;99.90;;;;;;5076921;28;20043;-79
2024/03/25 05:33:34;;;;;;;2.53;1.27;;;6.10;99.90;;;;;;5076482;28;20024;-81
2024/03/25 05:36:00;;;;;;;5.03;1.47;;;6.10;99.90;;;;;;5077157;28;20032;-81
2024/03/25 05:38:27;;;;;;;7.07;1.70;;;6.10;99.90;;;;;;5076777;28;20019;-82
2024/03/25 05:40:52;;;;;;;3.27;1.93;;;6.10;99.90;;;;;;5078076;28;20024;-83
2024/03/25 05:43:20;;;;;;;2.93;1.50;;;6.00;99.90;;;;;;5077186;28;20026;-85
2024/03/25 05:45:55;;;;;;;5.50;1.80;;;6.00;99.90;;;;;;5075327;28;20109;-85
2024/03/25 05:48:22;;;;;;;7.03;1.70;;;6.00;99.90;;;;;;5076578;28;20032;-85
2024/03/25 05:50:58;;;;;;;3.63;2.30;;;6.00;99.90;;;;;;5076270;28;20112;-85
2024/03/25 05:53:24;;;;;;;3.07;1.37;;;6.00;99.90;;;;;;5076995;28;20020;-86
2024/03/25 05:55:50;;;;;;;5.33;1.93;;;6.00;99.90;;;;;;5093798;28;20028;-87
2024/03/25 05:58:15;;;;;;;3.97;1.60;;;6.00;99.90;;;;;;5076868;28;20028;-88
2024/03/25 06:00:41;;;;;;;2.47;1.53;;;6.00;99.90;;;;;;5075935;28;20026;-89
2024/03/25 06:03:07;;;;;;;4.80;1.70;;;6.00;99.90;;;;;;5076356;28;20106;-88
2024/03/25 06:05:32;;;;;;;3.43;1.60;;;6.00;99.90;;;;;;5076189;28;20065;-83
2024/03/25 06:07:58;;;;;;;2.97;1.50;;;6.00;99.90;;;;;;5079544;28;20025;-85
2024/03/25 06:10:23;;;;;;;3.93;1.50;;;6.10;99.90;;;;;;5056515;28;20024;-85
2024/03/25 06:12:49;;;;;;;2.80;1.80;;;6.10;99.90;;;;;;5055708;28;20055;-85
2024/03/25 06:15:14;;;;;;;6.57;1.50;;;6.10;99.90;;;;;;5056339;28;20499;-85
2024/03/25 06:17:40;;;;;;;4.00;1.60;;;6.10;99.90;;;;;;5055783;28;20024;-84
2024/03/25 06:20:06;;;;;;;3.63;1.47;;;6.10;99.90;;;;;;5056013;28;20113;-85
2024/03/25 06:22:32;;;;;;;3.70;1.50;;;6.20;99.90;;;;;;5073624;28;20040;-84
2024/03/25 06:24:57;;;;;;;4.53;1.50;;;6.20;99.90;;;;;;5073837;28;20025;-86
2024/03/25 06:27:23;;;;;;;4.37;1.70;;;6.30;99.90;;;;;;5056631;28;20031;-86
2024/03/25 06:34:13;;;;;;;4.73;1.60;;;6.30;99.90;;;;;;5061994;28;20078;-86
2024/03/25 06:35:18;;;;;;;6.43;2.30;;;6.40;99.90;;;;;;5093747;28;20463;-88
2024/03/25 06:37:44;;;;;;;3.65;1.80;;;6.40;99.90;;;;;;5093302;28;20020;-86
2024/03/25 06:40:10;;;;;;;5.28;1.88;;;6.40;99.90;;;;;;5093740;28;20464;-85
2024/03/25 06:42:35;;;;;;;3.93;2.13;;;6.40;99.90;;;;;;5075520;28;20107;-83
2024/03/25 06:45:01;;;;;;;5.43;2.10;;;6.50;99.90;;;;;;5075525;28;20130;-87
2024/03/25 06:47:26;;;;;;;4.25;2.00;;;6.50;99.90;;;;;;5076216;28;20078;-86
2024/03/25 06:49:52;;;;;;;3.37;1.60;;;6.50;99.90;;;;;;5093473;28;20020;-86
2024/03/25 06:52:18;;;;;;;4.57;1.77;;;6.50;99.90;;;;;;5076072;28;20457;-86
2024/03/25 06:54:43;;;;;;;2.70;1.63;;;6.60;99.90;;;;;;5075689;28;20023;-86
2024/03/25 06:57:09;;;;;;;3.00;1.63;;;6.60;99.90;;;;;;5079078;28;20020;-86
2024/03/25 06:59:37;;;;;;;3.13;1.33;;;6.70;99.90;;;;;;5097268;28;20062;-85
2024/03/25 07:02:02;;;;;;;5.00;1.70;;;6.70;99.90;;;;;;5080230;28;20056;-86
2024/03/25 07:04:28;;;;;;;4.60;1.70;;;6.70;99.90;;;;;;5079677;28;20024;-87
2024/03/25 07:06:53;;;;;;;5.03;1.60;;;6.80;99.90;;;;;;5079283;28;20020;-86
2024/03/25 07:09:20;;;;;;;8.23;1.80;;;6.80;99.90;;;;;;5097274;28;20441;-86
2024/03/25 07:11:46;;;;;;;6.53;1.90;;;6.80;99.90;;;;;;5079066;28;20027;-86
2024/03/25 07:14:12;;;;;;;7.47;1.92;;;6.80;99.90;;;;;;5079238;28;20114;-86
2024/03/25 07:16:37;;;;;;;5.35;1.60;;;6.90;99.90;;;;;;5079165;28;20063;-85
2024/03/25 07:19:03;;;;;;;3.85;1.67;;;6.90;99.90;;;;;;5079416;28;20417;-87
2024/03/25 07:21:29;;;;;;;4.28;1.73;;;6.90;99.90;;;;;;5079347;28;20030;-86
2024/03/25 07:23:54;;;;;;;3.60;1.60;;;7.00;99.90;;;;;;5078559;28;20537;-87
2024/03/25 07:26:20;;;;;;;5.13;1.92;;;7.10;99.90;;;;;;5079233;28;20059;-87
2024/03/25 07:28:45;;;;;;;7.80;2.00;;;7.10;99.90;;;;;;5078366;28;20076;-87
2024/03/25 07:31:11;;;;;;;5.20;1.80;;;7.00;99.90;;;;;;5078629;28;20403;-86
2024/03/25 07:33:36;;;;;;;6.68;1.65;;;7.10;99.90;;;;;;5078415;28;20078;-84
2024/03/25 07:36:02;;;;;;;3.05;1.90;;;7.00;99.90;;;;;;5078630;28;20464;-87
2024/03/25 07:38:28;;;;;;;5.00;1.70;;;7.10;99.90;;;;;;5078925;28;20024;-87
2024/03/25 07:40:53;;;;;;;8.40;1.50;;;7.10;99.90;;;;;;5078113;28;20115;-86
2024/03/25 07:43:19;;;;;;;5.68;2.20;;;7.20;99.90;;;;;;5078684;28;20020;-86
2024/03/25 07:45:44;;;;;;;4.57;1.80;;;7.30;99.90;;;;;;5077248;28;20473;-86
2024/03/25 07:48:10;;;;;;;5.07;1.80;;;7.30;99.90;;;;;;5078705;28;20028;-86
2024/03/25 07:50:36;;;;;;;7.50;2.15;;;7.30;99.90;;;;;;5096256;28;20028;-85
2024/03/25 07:53:01;;;;;;;4.25;1.80;;;7.30;99.90;;;;;;5078184;28;20065;-86
2024/03/25 07:55:27;;;;;;;5.35;1.75;;;7.30;99.90;;;;;;5078369;28;20070;-86
2024/03/25 07:57:53;;;;;;;5.68;1.92;;;7.40;99.90;;;;;;5095830;28;20035;-85
2024/03/25 08:00:18;;;;;;;7.30;1.90;;;7.40;99.90;;;;;;5078492;28;20020;-86
2024/03/25 08:02:44;;;;;;;5.80;2.03;;;7.40;99.90;;;;;;5077835;28;20020;-86
2024/03/25 08:05:09;;;;;;;5.68;1.90;;;7.40;99.90;;;;;;5078479;28;20019;-85
2024/03/25 08:07:35;;;;;;;2.92;1.40;;;7.40;99.90;;;;;;5077408;28;20478;-85
2024/03/25 08:10:00;;;;;;;5.30;2.17;;;7.50;99.90;;;;;;5076990;28;20443;-87
2024/03/25 08:12:26;;;;;;;5.18;2.30;;;7.50;99.90;;;;;;5095943;28;20039;-86
2024/03/25 08:14:51;;;;;;;3.90;1.75;;;7.50;99.90;;;;;;5077553;28;20065;-87
2024/03/25 08:17:17;;;;;;;5.93;2.03;;;7.60;99.90;;;;;;5078328;28;20027;-85
2024/03/25 08:19:43;;;;;;;8.52;2.00;;;7.60;99.90;;;;;;5078935;28;20077;-84
2024/03/25 08:22:08;;;;;;;4.53;2.17;;;7.60;99.90;;;;;;5096478;28;20028;-85
2024/03/25 08:24:34;;;;;;;4.03;1.80;;;7.70;99.90;;;;;;5095903;28;20393;-85
2024/03/25 08:26:59;;;;;;;6.10;1.85;;;7.70;99.90;;;;;;5077724;28;20020;-85
2024/03/25 08:29:25;;;;;;;5.13;1.70;;;7.80;99.90;;;;;;5077983;28;20035;-86
2024/03/25 08:31:50;;;;;;;3.83;1.63;;;7.90;99.90;;;;;;5077733;28;20023;-88
2024/03/25 08:34:16;;;;;;;6.57;2.00;;;7.90;99.90;;;;;;5095899;28;20445;-88
2024/03/25 08:36:42;;;;;;;6.18;1.83;;;7.90;99.90;;;;;;5077497;28;20016;-85
2024/03/25 08:39:07;;;;;;;6.40;2.38;;;8.00;99.90;;;;;;5078121;28;20035;-88
2024/03/25 08:41:33;;;;;;;6.28;2.10;;;8.00;99.90;;;;;;5095844;28;20072;-86
2024/03/25 08:43:58;;;;;;;8.80;2.08;;;8.10;99.90;;;;;;5077668;28;20044;-87
2024/03/25 08:46:24;;;;;;;2.90;1.92;;;8.20;99.90;;;;;;5078397;28;20024;-87
2024/03/25 08:48:49;;;;;;;4.35;1.85;;;8.30;99.90;;;;;;5077496;28;20024;-88
2024/03/25 08:51:15;;;;;;;6.38;1.95;;;8.30;99.90;;;;;;5077706;28;20020;-88
2024/03/25 08:53:41;;;;;;;4.32;1.80;;;8.50;99.90;;;;;;5078213;28;20024;-83
2024/03/25 08:56:06;;;;;;;5.25;1.73;;;8.50;99.90;;;;;;5077602;28;20412;-88
2024/03/25 08:58:32;;;;;;;7.57;1.90;;;8.50;99.90;;;;;;5095362;28;20099;-88
2024/03/25 09:00:57;;;;;;;10.98;2.47;;;8.50;99.90;;;;;;5094987;28;20028;-88
2024/03/25 09:03:23;;;;;;;4.50;1.30;;;8.50;99.90;;;;;;5077115;28;20073;-88
2024/03/25 09:05:49;;;;;;;4.60;1.42;;;8.60;99.90;;;;;;5076353;28;20102;-87
2024/03/25 09:08:14;;;;;;;4.32;1.55;;;8.70;99.90;;;;;;5076882;28;20404;-87
2024/03/25 09:13:28;;;;;;;7.72;1.88;;;8.60;99.90;;;;;;5094743;28;20522;-87
2024/03/25 09:15:53;;;;;;;5.05;1.63;;;8.60;99.90;;;;;;5094274;28;20036;-88
2024/03/25 09:18:19;;;;;;;5.82;1.45;;;8.60;99.90;;;;;;5077202;28;20066;-88
2024/03/25 09:20:44;;;;;;;5.70;1.50;;;8.70;99.90;;;;;;5076739;28;20051;-85
2024/03/25 09:23:10;;;;;;;4.78;1.65;;;8.80;99.90;;;;;;5094938;28;20020;-88
2024/03/25 09:25:36;;;;;;;3.88;1.30;;;8.90;99.90;;;;;;5077028;28;20460;-88
2024/03/25 09:28:02;;;;;;;3.35;1.35;;;8.90;99.90;;;;;;5076420;28;20622;-88
2024/03/25 09:30:28;;;;;;;7.75;1.20;;;8.90;99.90;;;;;;5076969;28;20020;-88
2024/03/25 09:32:54;;;;;;;5.20;1.27;;;8.90;99.90;;;;;;5094950;28;20099;-88
2024/03/25 09:35:20;;;;;;;6.05;1.25;;;8.80;99.90;;;;;;5077299;28;20020;-90
2024/03/25 09:37:45;;;;;;;5.43;1.23;;;8.80;99.90;;;;;;5076550;28;20021;-86
2024/03/25 09:40:11;;;;;;;3.25;1.27;;;8.80;99.90;;;;;;5095055;28;20050;-89
2024/03/25 09:42:54;;;;;;;3.97;0.90;;;8.90;99.90;;;;;;5095820;28;20026;-89
2024/03/25 09:45:25;;;;;;;1.52;0.82;;;8.80;99.90;;;;;;5112206;28;20051;-89
2024/03/25 09:47:51;;;;;;;5.80;1.30;;;8.90;99.90;;;;;;5096912;28;20027;-88
2024/03/25 09:50:21;;;;;;;4.38;0.80;;;8.90;99.90;;;;;;5097535;28;20060;-90
2024/03/25 09:52:50;;;;;;;1.60;0.70;;;8.90;99.90;;;;;;5096954;28;20024;-87
2024/03/25 09:55:16;;;;;;;2.60;0.88;;;8.90;99.90;;;;;;5114748;28;20024;-89
2024/03/25 09:57:45;;;;;;;2.58;1.20;;;8.90;99.90;;;;;;5096970;28;20016;-87
2024/03/25 10:00:12;;;;;;;4.95;1.23;;;9.00;99.90;;;;;;5096663;28;20508;-88
2024/03/25 10:02:40;;;;;;;2.20;0.82;;;9.00;99.90;;;;;;5115223;28;20034;-87
2024/03/25 10:05:07;;;;;;;5.68;1.10;;;9.00;99.90;;;;;;5114616;28;20026;-87
2024/03/25 10:07:34;;;;;;;3.58;1.67;;;9.10;99.90;;;;;;5097394;28;20016;-84
2024/03/25 10:09:59;;;;;;;3.38;1.10;;;9.10;99.90;;;;;;5096337;28;20066;-85
2024/03/25 10:12:25;;;;;;;3.58;1.00;;;9.20;99.90;;;;;;5097012;28;20020;-84
2024/03/25 10:14:51;;;;;;;3.75;1.00;;;9.10;99.90;;;;;;5096259;28;20020;-84
2024/03/25 10:17:17;;;;;;;3.65;1.10;;;9.10;99.90;;;;;;5091667;28;20055;-84
2024/03/25 10:19:42;;;;;;;3.50;1.30;;;9.10;99.90;;;;;;5085402;28;20468;-85
2024/03/25 10:22:09;;;;;;;3.35;1.35;;;9.20;99.90;;;;;;5102867;28;20076;-84
2024/03/25 10:24:45;;;;;;;3.38;1.10;;;9.20;99.90;;;;;;5103447;28;20463;-82
2024/03/25 10:27:21;;;;;;;4.18;1.00;;;9.30;99.90;;;;;;5084823;28;20024;-84
2024/03/25 10:29:55;;;;;;;4.80;1.73;;;9.40;99.90;;;;;;5102318;28;20040;-83
2024/03/25 10:32:21;;;;;;;3.90;0.90;;;9.40;99.90;;;;;;5109495;28;20020;-85
2024/03/25 10:34:47;;;;;;;3.30;1.05;;;9.40;99.60;;;;;;5088537;28;20445;-85
2024/03/25 10:37:14;;;;;;;2.25;0.80;;;9.60;99.90;;;;;;5106337;28;20027;-84
2024/03/25 10:39:48;;;;;;;3.70;1.40;;;9.60;99.80;;;;;;5088041;28;20030;-84
2024/03/25 10:42:14;;;;;;;1.55;0.88;;;9.60;99.90;;;;;;5088638;28;20055;-84
2024/03/25 10:44:40;;;;;;;5.18;1.00;;;9.50;98.40;;;;;;5106415;28;20072;-84
2024/03/25 10:47:08;;;;;;;3.65;0.80;;;9.60;98.90;;;;;;5086478;28;20246;-83
2024/03/25 10:49:44;;;;;;;3.28;1.15;;;9.60;98.20;;;;;;5088557;28;20520;-83
2024/03/25 10:52:12;;;;;;;3.45;1.27;;;9.60;97.90;;;;;;5088342;28;20054;-84
2024/03/25 10:54:39;;;;;;;2.50;0.75;;;9.70;97.00;;;;;;5104691;28;20028;-83
2024/03/25 10:57:07;;;;;;;2.05;1.10;;;9.70;96.30;;;;;;5087284;28;20020;-83
2024/03/25 10:59:37;;;;;;;5.45;1.10;;;9.70;96.80;;;;;;5088641;28;20048;-83
2024/03/25 11:02:03;;;;;;;3.05;1.15;;;9.70;96.60;;;;;;5088119;28;20107;-83
2024/03/25 11:04:30;;;;;;;2.10;0.82;;;9.70;96.70;;;;;;5089336;28;20120;-83
2024/03/25 11:07:07;;;;;;;4.25;0.85;;;9.70;97.00;;;;;;5087842;28;20024;-83
2024/03/25 11:09:32;;;;;;;2.45;0.80;;;9.70;97.50;;;;;;5089143;28;20024;-84
2024/03/25 11:11:58;;;;;;;2.65;1.00;;;9.70;98.40;;;;;;5089403;28;20035;-84
2024/03/25 11:14:28;;;;;;;2.95;1.00;;;9.80;99.00;;;;;;5089078;28;20380;-84
2024/03/25 11:16:54;;;;;;;4.35;1.10;;;9.80;98.90;;;;;;5089178;28;20028;-84
2024/03/25 11:19:24;;;;;;;2.17;1.10;;;9.80;97.50;;;;;;5089128;28;20028;-84
2024/03/25 11:21:50;;;;;;;3.05;1.30;;;9.80;98.00;;;;;;5087545;28;20042;-84
2024/03/25 11:24:27;;;;;;;3.75;1.10;;;9.80;99.40;;;;;;5105398;28;20383;-84
2024/03/25 11:26:53;;;;;;;3.20;1.33;;;9.80;99.90;;;;;;5087596;28;20470;-84
2024/03/25 11:29:18;;;;;;;2.83;1.60;;;9.90;99.70;;;;;;5088043;28;20460;-85
2024/03/25 11:31:45;;;;;;;3.17;1.10;;;9.90;99.90;;;;;;5088124;28;20070;-83
2024/03/25 11:34:11;;;;;;;4.50;1.13;;;9.90;99.50;;;;;;5088145;28;20023;-85
2024/03/25 11:36:37;;;;;;;2.88;1.30;;;10.00;99.90;;;;;;5088198;28;20123;-83
2024/03/25 11:39:09;;;;;;;1.83;0.90;;;10.10;99.90;;;;;;5087297;28;20051;-84
2024/03/25 11:41:44;;;;;;;2.03;1.05;;;10.10;98.30;;;;;;5106146;28;20016;-84
2024/03/25 11:44:14;;;;;;;2.47;1.10;;;10.20;99.30;;;;;;5105444;28;20117;-86
2024/03/25 11:46:40;;;;;;;3.15;0.95;;;10.20;98.50;;;;;;5088156;28;20064;-85
2024/03/25 11:49:08;;;;;;;2.65;1.10;;;10.20;98.50;;;;;;5087055;28;20051;-85
2024/03/25 11:51:34;;;;;;;3.03;1.05;;;10.30;98.80;;;;;;5087603;28;20448;-85
2024/03/25 11:54:03;;;;;;;2.65;1.02;;;10.40;99.20;;;;;;5088103;28;20020;-85
2024/03/25 11:56:32;;;;;;;4.93;1.17;;;10.40;98.70;;;;;;5086799;28;20111;-84
2024/03/25 11:59:02;;;;;;;3.20;1.23;;;10.50;98.90;;;;;;5104948;28;20027;-85
2024/03/25 12:01:29;;;;;;;0.93;0.80;;;10.50;97.50;;;;;;5086505;28;20031;-85
2024/03/25 12:03:54;;;;;;;5.18;1.45;;;10.60;96.70;;;;;;5086592;28;20068;-85
2024/03/25 12:06:20;;;;;;;2.22;1.15;;;10.70;96.30;;;;;;5087894;28;20108;-85
2024/03/25 12:11:17;;;;;;;4.18;1.08;;;10.90;97.30;;;;;;5088143;28;20027;-86
2024/03/25 12:11:31;;;;;;;2.75;0.98;;;11.10;99.10;;;;;;5105640;28;20026;-86
2024/03/25 12:13:58;;;;;;;1.15;0.80;;;11.20;99.60;;;;;;5084477;28;20089;-85
2024/03/25 12:16:24;;;;;;;2.42;0.95;;;11.50;97.70;;;;;;5087156;28;20028;-86
2024/03/25 12:18:51;;;;;;;1.92;0.88;;;11.70;98.50;;;;;;5105130;28;20364;-85
2024/03/25 12:21:18;;;;;;;2.75;1.00;;;11.80;97.70;;;;;;5087883;28;20952;-84
2024/03/25 12:23:43;;;;;;;3.30;0.80;;;12.10;96.80;;;;;;5086787;28;20026;-85
2024/03/25 12:26:10;;;;;;;2.28;0.77;;;12.30;95.90;;;;;;5106565;28;20094;-85
2024/03/25 12:28:37;;;;;;;2.58;1.08;;;12.60;96.30;;;;;;5085823;28;20027;-85
2024/03/25 12:31:07;;;;;;;2.50;0.80;;;12.70;94.80;;;;;;5086792;28;20094;-85
2024/03/25 12:33:43;;;;;;;2.75;0.80;;;12.60;94.90;;;;;;5087159;28;20126;-85
2024/03/25 12:36:12;;;;;;;4.85;1.00;;;12.80;93.00;;;;;;5104045;28;20026;-86
2024/03/25 12:38:38;;;;;;;3.72;0.65;;;13.10;93.70;;;;;;5085994;28;20088;-85
2024/03/25 12:41:11;;;;;;;1.45;0.77;;;13.30;93.50;;;;;;5086143;28;20020;-85
2024/03/25 12:43:43;;;;;;;2.30;0.80;;;13.30;92.30;;;;;;5103551;28;20031;-84
2024/03/25 12:46:09;;;;;;;4.55;0.98;;;13.10;93.50;;;;;;5102972;28;20036;-85
2024/03/25 12:48:38;;;;;;;2.95;0.80;;;13.00;93.90;;;;;;5087065;28;20030;-86
2024/03/25 12:51:04;;;;;;;3.95;0.80;;;13.00;94.10;;;;;;5085117;28;20028;-86
2024/03/25 12:53:30;;;;;;;2.65;0.90;;;13.50;93.60;;;;;;5085778;28;20056;-85
2024/03/25 12:55:56;;;;;;;1.20;0.70;;;13.50;93.20;;;;;;5088527;28;20027;-84
2024/03/25 12:58:21;;;;;;;1.38;0.70;;;13.50;91.80;;;;;;5085325;28;20047;-85